Latest Weather Observations for Mackay

IDQ60801

Issued at 10:02 am EST Saturday 25 April 2015 (issued every 30 minutes, with the page automatically refreshed every 10 minutes)

About weather observations | Map of weather stations | Latest weather observations for QLD | Other Formats
Station Details ID: 033119 Name: MACKAY M.O Lat: -21.12 Lon: 149.22 Height: 30.26 m
Data from the previous 72 hours. | See also: Recent months at Mackay
Date/Time
EST
Temp
°C
App
Temp
°C
Dew
Point
Rel
Hum
%
Delta-T
°C
Wind Press
QNH
hPa
Press
MSL
hPa
Rain
since 9 am
mm
Dir
 
Spd
km/h
Gust
km/h
Spd
kts
Gust
kts
25/09:30am 25.1 25.6 16.5 59 5.3 NW 9 15 5 8 1012.2 1012.0 0.0
25/08:30am 21.8 21.9 15.4 67 3.8 WSW 9 13 5 7 1012.1 1011.9 0.0
25/08:00am 20.0 19.7 14.5 70 3.2 SW 9 15 5 8 1011.9 1011.7 0.0
25/07:30am 18.5 18.1 14.2 76 2.5 SW 9 15 5 8 1011.6 1011.4 0.0
25/07:00am 17.2 16.3 13.7 80 2.0 WSW 11 17 6 9 1011.4 1011.2 0.0
25/06:30am 17.0 15.6 13.5 80 2.0 WSW 13 17 7 9 1011.1 1010.9 0.0
25/05:30am 17.2 16.1 14.4 83 1.6 WSW 13 15 7 8 1010.5 1010.4 0.0
25/05:00am 17.1 16.1 14.5 85 1.5 WSW 13 15 7 8 1010.3 1010.2 0.0
25/04:30am 17.6 16.8 14.1 80 2.0 WSW 11 15 6 8 1010.2 1010.1 0.0
25/04:00am 17.8 17.2 14.7 82 1.8 WSW 11 15 6 8 1010.1 1010.0 0.0
25/03:30am 17.9 17.4 14.8 82 1.8 WSW 11 13 6 7 1010.2 1010.1 0.0
25/03:00am 18.2 17.7 14.8 80 2.0 WSW 11 13 6 7 1010.3 1010.2 0.0
25/02:30am 19.0 18.2 14.1 73 2.8 WSW 11 17 6 9 1010.4 1010.3 0.0
25/02:00am 19.3 18.5 13.9 71 3.1 WSW 11 13 6 7 1010.6 1010.5 0.0
25/01:30am 18.8 18.1 14.3 75 2.6 WSW 11 13 6 7 1010.8 1010.7 0.0
25/01:00am 18.4 17.8 14.6 78 2.2 SW 11 13 6 7 1011.1 1010.9 0.0
25/12:30am 18.6 17.8 15.2 80 2.0 WSW 13 15 7 8 1011.0 1010.8 0.0
25/12:00am 19.7 19.6 14.9 74 2.8 W 9 11 5 6 1011.0 1010.8 0.0
 
Date/Time
EST
Temp
°C
App
Temp
°C
Dew
Point
Rel
Hum
%
Delta-T
°C
Wind Press
QNH
hPa
Press
MSL
hPa
Rain
since 9 am
mm
Dir
 
Spd
km/h
Gust
km/h
Spd
kts
Gust
kts
24/11:30pm 19.8 19.9 15.6 77 2.5 W 9 11 5 6 1011.1 1010.9 0.0
24/11:00pm 20.5 21.2 15.5 73 3.0 WNW 6 6 3 3 1011.2 1011.0 0.0
24/10:30pm 21.4 22.0 15.9 71 3.3 NW 7 9 4 5 1011.2 1011.0 0.0
24/10:00pm 21.0 21.9 16.0 73 3.0 WNW 6 9 3 5 1011.4 1011.2 0.0
24/09:30pm 21.4 22.0 15.9 71 3.3 WNW 7 7 4 4 1011.5 1011.3 0.0
24/08:30pm 22.1 22.5 15.4 65 4.0 WNW 7 9 4 5 1011.1 1010.9 0.0
24/08:00pm 22.2 22.2 14.2 60 4.7 NW 7 9 4 5 1011.0 1010.8 0.0
24/07:30pm 22.0 22.7 15.5 66 3.9 N 6 7 3 4 1010.5 1010.4 0.0
24/07:00pm 22.5 23.2 15.5 64 4.2 NE 6 9 3 5 1010.1 1010.0 0.0
24/06:30pm 22.6 22.9 15.0 62 4.5 NE 7 11 4 6 1009.7 1009.6 0.0
24/06:00pm 22.8 23.5 15.5 63 4.4 NE 6 9 3 5 1009.4 1009.3 0.0
24/05:30pm 23.8 24.8 16.8 65 4.3 NNE 7 13 4 7 1009.2 1009.1 0.0
24/05:00pm 25.1 25.5 16.3 58 5.4 NNE 9 13 5 7 1009.0 1008.9 0.0
24/04:30pm 26.2 26.2 15.1 50 6.7 NNE 9 17 5 9 1008.8 1008.7 0.0
24/04:00pm 26.8 26.0 13.9 45 7.7 NNE 11 17 6 9 1008.4 1008.3 0.0
24/03:30pm 26.8 25.4 13.4 43 7.9 NNE 13 22 7 12 1008.3 1008.2 0.0
24/03:00pm 27.7 26.8 14.8 45 7.8 NNE 13 20 7 11 1008.4 1008.3 0.0
24/02:30pm 27.9 27.5 15.3 46 7.7 NNE 11 20 6 11 1008.5 1008.4 0.0
24/02:00pm 28.4 27.6 15.1 44 8.1 NNE 13 17 7 9 1008.7 1008.6 0.0
24/01:30pm 27.7 27.1 14.6 44 7.9 NNE 11 20 6 11 1009.0 1008.9 0.0
24/01:00pm 28.3 27.3 14.6 43 8.3 NNE 13 20 7 11 1009.5 1009.4 0.0
24/12:30pm 28.3 27.9 15.2 44 8.0 NNE 11 17 6 9 1009.9 1009.8 0.0
24/12:00pm 27.1 27.1 16.3 51 6.7 NE 11 17 6 9 1010.2 1010.1 0.0
24/11:30am 26.8 26.7 16.1 52 6.6 NE 11 17 6 9 1010.7 1010.6 0.0
24/11:00am 27.5 28.0 16.6 51 6.8 NE 9 17 5 9 1011.3 1011.1 0.0
24/10:30am 25.4 25.5 13.9 49 6.8 W 6 11 3 6 1011.9 1011.7 0.0
24/10:00am 25.0 24.9 15.0 53 6.0 SW 9 15 5 8 1012.0 1011.8 0.0
24/09:30am 24.0 23.8 14.8 56 5.5 WSW 9 13 5 7 1012.1 1011.9 0.0
24/09:00am 22.4 21.8 14.6 61 4.6 WSW 11 15 6 8 1012.2 1012.0 0.0
24/08:30am 20.5 19.3 13.9 66 3.8 WSW 13 19 7 10 1012.2 1012.0 0.0
24/08:00am 19.2 17.1 13.6 70 3.2 SW 17 22 9 12 1012.1 1011.9 0.0
24/07:30am 17.8 16.3 13.2 74 2.6 SW 13 20 7 11 1011.8 1011.6 0.0
24/07:00am 16.9 14.5 12.8 77 2.3 WSW 17 24 9 13 1011.4 1011.2 0.0
24/06:30am 16.1 14.2 13.1 82 1.7 SW 15 19 8 10 1011.0 1010.8 0.0
24/06:00am 16.3 14.6 13.5 83 1.6 SW 15 19 8 10 1010.7 1010.6 0.0
24/05:30am 16.3 14.8 13.1 81 1.8 SW 13 17 7 9 1010.5 1010.4 0.0
24/05:00am 16.4 14.6 13.2 81 1.8 WSW 15 20 8 11 1010.4 1010.3 0.0
24/04:30am 16.6 14.4 13.4 81 1.8 WSW 17 22 9 12 1010.5 1010.4 0.0
24/04:00am 16.6 15.0 13.8 83 1.6 SW 15 20 8 11 1010.4 1010.3 0.0
24/03:30am 16.8 15.1 13.6 81 1.8 SW 15 20 8 11 1010.6 1010.5 0.0
24/03:00am 16.9 15.2 13.7 81 1.8 SW 15 19 8 10 1010.7 1010.6 0.0
24/02:30am 16.9 15.7 14.1 83 1.6 SW 13 19 7 10 1010.7 1010.6 0.0
24/02:00am 16.9 15.7 14.1 83 1.6 SW 13 17 7 9 1011.0 1010.8 0.0
24/01:30am 17.2 16.1 14.2 82 1.7 SW 13 17 7 9 1011.2 1011.0 0.0
24/01:00am 17.3 16.2 14.3 82 1.7 SW 13 17 7 9 1011.4 1011.2 0.0
24/12:30am 17.4 16.3 14.3 82 1.8 SW 13 17 7 9 1011.7 1011.5 0.0
24/12:00am 17.4 16.7 14.3 82 1.8 SW 11 15 6 8 1011.7 1011.5 0.0
 
Date/Time
EST
Temp
°C
App
Temp
°C
Dew
Point
Rel
Hum
%
Delta-T
°C
Wind Press
QNH
hPa
Press
MSL
hPa
Rain
since 9 am
mm
Dir
 
Spd
km/h
Gust
km/h
Spd
kts
Gust
kts
23/11:30pm 17.3 16.1 14.0 81 1.9 SW 13 17 7 9 1011.8 1011.6 0.0
23/11:00pm 17.5 16.0 14.2 81 1.9 SW 15 17 8 9 1011.8 1011.6 0.0
23/10:30pm 17.9 16.8 14.4 80 2.0 SW 13 17 7 9 1011.9 1011.7 0.0
23/10:00pm 18.2 17.5 14.2 77 2.3 WSW 11 15 6 8 1011.8 1011.6 0.0
23/09:30pm 19.1 18.3 13.9 72 3.0 WSW 11 13 6 7 1011.9 1011.7 0.0
23/09:00pm 19.2 19.0 14.6 74 2.7 SW 9 13 5 7 1012.0 1011.8 0.0
23/08:30pm 20.7 21.1 13.8 64 4.0 WNW 4 6 2 3 1012.1 1011.9 0.0
23/08:00pm 21.0 21.7 13.5 62 4.3 N 2 7 1 4 1011.9 1011.7 0.0
23/07:30pm 22.1 21.5 13.5 58 5.0 E 9 13 5 7 1011.4 1011.2 0.0
23/07:00pm 22.2 21.8 13.0 56 5.3 E 7 13 4 7 1011.0 1010.8 0.0
23/06:30pm 22.1 21.2 12.6 55 5.4 ESE 9 13 5 7 1010.3 1010.2 0.0
23/06:00pm 22.3 21.6 13.1 56 5.3 ESE 9 15 5 8 1010.1 1010.0 0.0
23/05:30pm 22.5 20.9 12.7 54 5.6 ESE 13 19 7 10 1009.7 1009.6 0.0
23/05:00pm 22.7 21.5 12.8 53 5.7 SE 11 19 6 10 1009.4 1009.3 0.0
23/04:30pm 23.4 22.1 12.4 50 6.3 ESE 11 17 6 9 1009.4 1009.3 0.0
23/04:00pm 23.7 22.3 13.4 52 6.0 ESE 13 20 7 11 1009.3 1009.2 0.0
23/03:30pm 23.4 21.4 12.6 50 6.2 ESE 15 20 8 11 1009.3 1009.2 0.0
23/03:00pm 23.5 21.6 13.1 52 6.0 ESE 15 20 8 11 1009.4 1009.3 0.0
23/02:30pm 23.4 21.8 12.8 51 6.1 ESE 13 24 7 13 1009.5 1009.4 0.0
23/02:00pm 23.7 21.8 13.0 51 6.2 ESE 15 26 8 14 1009.9 1009.8 0.0
23/01:30pm 23.6 21.2 12.6 50 6.3 SE 17 28 9 15 1010.3 1010.2 0.0
23/01:00pm 23.7 21.6 12.3 48 6.5 SE 15 24 8 13 1011.1 1010.9 0.0
23/12:30pm 23.6 21.1 12.2 48 6.5 SE 17 24 9 13 1011.7 1011.5 0.0
23/12:00pm 24.4 22.2 12.1 46 7.0 SE 15 24 8 13 1012.4 1012.2 0.0
23/11:30am 23.7 21.0 11.7 47 6.8 SE 17 26 9 14 1012.9 1012.7 0.0
23/11:00am 23.4 20.7 11.7 47 6.6 SSE 17 24 9 13 1013.5 1013.3 0.0
23/10:30am 23.3 19.9 10.4 44 7.1 SSE 19 26 10 14 1013.9 1013.7 0.0
23/10:00am 22.6 19.5 10.4 46 6.7 S 17 24 9 13 1014.3 1014.1 0.0
23/09:30am 21.8 19.5 11.6 52 5.7 S 15 24 8 13 1014.4 1014.2 0.0
23/09:00am 20.3 16.8 10.1 52 5.5 S 19 26 10 14 1014.5 1014.3 0.0
23/08:30am 19.3 17.6 11.1 59 4.5 SSW 11 19 6 10 1014.5 1014.3 0.0
23/08:00am 17.1 15.4 11.2 68 3.2 SW 11 15 6 8 1014.3 1014.1 0.0
23/07:30am 15.8 13.7 11.3 74 2.4 SW 13 17 7 9 1014.1 1013.9 0.0
23/07:00am 14.5 12.1 11.3 81 1.7 SW 15 17 8 9 1013.7 1013.5 0.0
23/06:30am 13.8 11.7 11.0 83 1.5 SW 13 17 7 9 1013.4 1013.2 0.0
23/06:00am 13.8 12.0 11.0 83 1.5 SW 11 15 6 8 1012.8 1012.6 0.0
23/05:30am 14.0 11.9 11.0 82 1.6 SW 13 15 7 8 1012.6 1012.4 0.0
23/05:00am 14.3 12.6 11.3 82 1.6 WSW 11 17 6 9 1012.4 1012.2 0.0
23/04:30am 14.5 12.7 12.1 85 1.3 SW 13 17 7 9 1012.1 1011.9 0.0
23/04:00am 15.0 12.8 12.1 83 1.6 SW 15 20 8 11 1012.0 1011.8 0.0
23/03:30am 15.1 13.3 12.2 83 1.6 SW 13 17 7 9 1011.8 1011.6 0.0
23/03:00am 15.5 13.9 12.8 84 1.5 SW 13 19 7 10 1012.0 1011.8 0.0
23/02:30am 15.6 14.0 12.7 83 1.6 SW 13 19 7 10 1012.0 1011.8 0.0
23/02:00am 15.9 13.9 12.8 82 1.7 SW 15 17 8 9 1012.2 1012.0 0.0
23/01:30am 16.0 14.6 13.3 84 1.5 SW 13 17 7 9 1012.4 1012.2 0.0
23/01:00am 15.9 14.3 13.8 87 1.2 SW 15 17 8 9 1012.8 1012.6 0.0
23/12:30am 16.0 15.2 14.1 88 1.1 SW 11 15 6 8 1012.9 1012.7 0.0
23/12:00am 16.3 15.2 14.2 87 1.2 SW 13 19 7 10 1013.1 1012.9 0.0
 
Date/Time
EST
Temp
°C
App
Temp
°C
Dew
Point
Rel
Hum
%
Delta-T
°C
Wind Press
QNH
hPa
Press
MSL
hPa
Rain
since 9 am
mm
Dir
 
Spd
km/h
Gust
km/h
Spd
kts
Gust
kts
22/11:30pm 16.6 15.4 14.1 85 1.4 SW 13 17 7 9 1013.4 1013.2 0.0
22/11:00pm 17.1 15.9 14.1 82 1.7 SW 13 20 7 11 1013.6 1013.4 0.0
22/10:30pm 17.3 16.1 14.0 81 1.9 SW 13 17 7 9 1013.7 1013.5 0.0
22/10:00pm 17.5 16.4 14.2 81 1.9 SW 13 15 7 8 1013.7 1013.5 0.0
22/09:30pm 18.4 17.6 13.9 75 2.6 SSW 11 13 6 7 1013.7 1013.5 0.0
22/09:00pm 18.7 17.9 14.0 74 2.7 SSW 11 13 6 7 1013.7 1013.5 0.0
22/08:30pm 19.0 18.4 14.5 75 2.6 SSW 11 15 6 8 1013.5 1013.3 0.0
22/08:00pm 20.8 20.0 14.1 65 3.9 S 11 17 6 9 1013.2 1013.0 0.0
22/07:30pm 21.5 20.0 13.1 58 4.8 SSE 13 19 7 10 1012.9 1012.7 0.0
22/07:00pm 21.7 20.4 12.5 56 5.2 SSE 11 17 6 9 1012.5 1012.3 0.0
22/06:30pm 21.4 19.9 13.2 59 4.7 SSE 13 19 7 10 1012.4 1012.2 0.0
22/06:00pm 21.4 20.3 13.2 59 4.7 SE 11 19 6 10 1012.2 1012.0 0.0
22/05:30pm 21.6 20.3 13.7 60 4.6 SE 13 17 7 9 1011.9 1011.7 0.0
22/05:00pm 22.0 20.5 13.1 57 5.1 SE 13 20 7 11 1011.7 1011.5 0.0
22/04:30pm 22.7 21.5 14.0 58 5.1 SE 13 22 7 12 1011.4 1011.2 0.0
22/04:00pm 22.7 21.0 13.6 56 5.3 SE 15 24 8 13 1011.0 1010.8 0.0
22/03:30pm 23.1 21.4 13.7 55 5.5 SE 15 24 8 13 1011.0 1010.8 0.0
22/03:00pm 22.9 21.1 13.4 55 5.5 ESE 15 24 8 13 1011.1 1010.9 0.0
22/02:30pm 22.9 20.9 12.8 53 5.8 ESE 15 22 8 12 1011.6 1011.4 0.0
22/02:00pm 22.8 21.3 13.1 54 5.6 ESE 13 20 7 11 1012.0 1011.8 0.0
22/01:30pm 22.9 21.0 13.0 53 5.7 ESE 15 24 8 13 1012.4 1012.2 0.0
22/01:00pm 22.3 20.1 12.0 52 5.8 ESE 15 24 8 13 1012.7 1012.5 0.0
22/12:30pm 22.3 20.3 11.6 50 6.0 ESE 13 20 7 11 1013.3 1013.1 0.0
22/12:00pm 21.9 19.4 11.1 50 6.0 SE 15 20 8 11 1013.8 1013.6 0.0
22/11:30am 21.8 19.6 10.9 50 6.0 SE 13 24 7 13 1014.3 1014.1 0.0
22/11:00am 22.4 20.3 11.0 48 6.3 SE 13 26 7 14 1014.9 1014.7 0.0
22/10:30am 21.6 18.1 8.8 44 6.8 S 17 26 9 14 1015.3 1015.1 0.0

Other Formats:

Comma delimited format used in spreadsheet applications
http://www.bom.gov.au/fwo/IDQ60801/IDQ60801.94367.axf

JavaScript Object Notation format (JSON) in row-major order
http://www.bom.gov.au/fwo/IDQ60801/IDQ60801.94367.json